createdAt,value
2017-11-27T00:02:19.325Z,56.40
2017-11-27T00:07:25.709Z,56.10
2017-11-27T00:10:01.368Z,56.30
2017-11-27T00:12:28.030Z,56.30
2017-11-27T00:14:55.802Z,56.10
2017-11-27T00:17:25.694Z,56.10
2017-11-27T00:22:30.759Z,56.30
2017-11-27T00:32:53.743Z,56.70
2017-11-27T00:37:59.452Z,56.20
2017-11-27T00:40:37.321Z,56.60
2017-11-27T00:43:13.295Z,56.60
2017-11-27T00:45:43.746Z,56.30
2017-11-27T00:50:49.340Z,56.70
2017-11-27T00:53:19.695Z,56.50
2017-11-27T00:58:25.778Z,56.70
2017-11-27T01:00:55.743Z,56.30
2017-11-27T01:03:31.355Z,56.80
2017-11-27T01:05:58.002Z,56.80
2017-11-27T01:08:25.769Z,56.80
2017-11-27T01:16:10.287Z,56.60
2017-11-27T01:18:37.710Z,56.50
2017-11-27T01:21:07.753Z,56.70
2017-11-27T01:26:13.693Z,56.80
2017-11-27T01:31:19.783Z,56.80
2017-11-27T01:33:46.440Z,56.60
2017-11-27T01:36:13.775Z,56.70
2017-11-27T01:38:43.814Z,56.60
2017-11-27T01:41:13.730Z,56.80
2017-11-27T01:43:49.370Z,56.70
2017-11-27T01:46:16.009Z,57.00
2017-11-27T01:48:55.360Z,57.00
2017-11-27T01:51:21.994Z,56.90
2017-11-27T01:53:49.768Z,56.60
2017-11-27T01:56:25.404Z,56.90
2017-11-27T01:58:52.138Z,56.90
2017-11-27T02:01:19.815Z,57.00
2017-11-27T02:09:03.759Z,57.10
2017-11-27T02:11:31.790Z,57.10
2017-11-27T02:14:01.773Z,57.30
2017-11-27T02:24:26.056Z,57.30
2017-11-27T02:27:01.363Z,57.10
2017-11-27T02:32:07.760Z,57.40
2017-11-27T02:39:55.876Z,57.40
2017-11-27T02:42:25.790Z,57.40
2017-11-27T02:45:01.409Z,57.30
2017-11-27T02:47:28.060Z,57.50
2017-11-27T02:49:55.828Z,57.40
2017-11-27T02:52:22.475Z,57.30
2017-11-27T02:57:37.447Z,57.60
2017-11-27T03:02:43.251Z,57.40
2017-11-27T03:05:09.899Z,57.30
2017-11-27T03:10:25.344Z,57.40
2017-11-27T03:12:55.799Z,57.50
2017-11-27T03:18:01.767Z,57.60
2017-11-27T03:23:07.448Z,57.50
2017-11-27T03:33:37.823Z,57.60
2017-11-27T03:36:13.362Z,57.70
2017-11-27T03:38:43.808Z,57.70
2017-11-27T03:41:13.795Z,57.60
2017-11-27T03:51:43.387Z,57.90
2017-11-27T03:56:55.399Z,57.90
2017-11-27T04:02:13.462Z,57.90
2017-11-27T04:04:40.127Z,58.00
2017-11-27T04:07:07.863Z,57.90
2017-11-27T04:09:37.787Z,58.00
2017-11-27T04:12:13.439Z,58.00
2017-11-27T04:14:40.082Z,57.90
2017-11-27T04:17:07.865Z,57.90
2017-11-27T04:22:13.832Z,58.00
2017-11-27T04:29:58.328Z,58.10
2017-11-27T04:32:24.971Z,58.10
2017-11-27T04:34:51.583Z,58.00
2017-11-27T04:37:19.883Z,58.10
2017-11-27T04:39:55.419Z,58.00
2017-11-27T04:42:22.095Z,58.10
2017-11-27T04:44:48.724Z,58.00
2017-11-27T04:49:55.839Z,58.20
2017-11-27T04:52:22.540Z,58.10
2017-11-27T04:54:49.185Z,58.20
2017-11-27T05:02:43.456Z,58.20
2017-11-27T05:05:10.071Z,58.10
2017-11-27T05:07:37.836Z,58.20
2017-11-27T05:10:13.473Z,58.30
2017-11-27T05:12:40.135Z,58.10
2017-11-27T05:15:07.867Z,58.20
2017-11-27T05:20:19.883Z,58.20
2017-11-27T05:22:46.548Z,58.20
2017-11-27T05:25:25.451Z,58.20
2017-11-27T05:30:31.248Z,58.10
2017-11-27T05:32:57.873Z,58.10
2017-11-27T05:38:02.944Z,58.30
2017-11-27T05:40:31.933Z,58.20
2017-11-27T05:43:01.823Z,58.30
2017-11-27T05:45:37.487Z,58.20
2017-11-27T05:48:04.110Z,58.20
2017-11-27T05:50:31.904Z,58.30
2017-11-27T05:53:07.429Z,58.30
2017-11-27T05:55:37.903Z,58.40
2017-11-27T06:03:31.474Z,58.30
2017-11-27T06:05:58.144Z,58.50
2017-11-27T06:08:37.454Z,58.40
2017-11-27T06:11:04.119Z,58.30
2017-11-27T06:13:31.862Z,58.40
2017-11-27T06:16:07.529Z,58.40
2017-11-27T06:18:34.177Z,58.40
2017-11-27T06:21:01.913Z,58.60
2017-11-27T06:26:07.941Z,58.60
2017-11-27T06:31:12.952Z,58.60
2017-11-27T06:33:39.785Z,58.80
2017-11-27T06:36:06.427Z,58.70
2017-11-27T06:38:37.899Z,58.70
2017-11-27T06:41:07.898Z,58.70
2017-11-27T06:43:34.591Z,58.70
2017-11-27T06:51:25.888Z,58.90
2017-11-27T06:54:01.443Z,58.70
2017-11-27T06:56:28.100Z,58.80
2017-11-27T07:04:13.935Z,59.10
2017-11-27T07:14:43.905Z,59.10
2017-11-27T07:19:49.020Z,59.10
2017-11-27T07:22:15.642Z,59.10
2017-11-27T07:24:43.899Z,59.20
2017-11-27T07:27:10.518Z,59.10
2017-11-27T07:29:37.161Z,59.10
2017-11-27T07:32:03.805Z,59.40
2017-11-27T07:37:09.516Z,59.20
2017-11-27T07:42:15.163Z,59.30
2017-11-27T07:44:41.783Z,59.50
2017-11-27T07:49:47.642Z,59.60
2017-11-27T07:55:01.498Z,60.20
2017-11-27T07:57:28.148Z,60.20
2017-11-27T08:00:07.475Z,60.00
2017-11-27T08:02:34.132Z,59.80
2017-11-27T08:05:01.884Z,59.70
2017-11-27T08:07:28.551Z,59.90
2017-11-27T08:09:56.069Z,59.70
2017-11-27T08:12:22.767Z,59.80
2017-11-27T08:33:24.264Z,60.00
2017-11-27T08:49:05.289Z,60.30
2017-11-27T08:51:31.981Z,60.30
2017-11-27T08:53:58.682Z,60.50
2017-11-27T08:56:37.580Z,60.40
2017-11-27T08:59:04.303Z,60.30
2017-11-27T09:01:30.964Z,60.40
2017-11-27T09:35:46.791Z,61.50
2017-11-27T09:56:45.973Z,61.90
2017-11-27T10:20:26.143Z,62.80
2017-11-27T10:22:52.843Z,62.90
2017-11-27T10:25:19.717Z,62.80
2017-11-27T10:27:50.010Z,62.90
2017-11-27T10:32:56.005Z,62.80
2017-11-27T10:53:55.588Z,63.40
2017-11-27T11:06:56.932Z,63.90
2017-11-27T11:09:23.627Z,63.70
2017-11-27T11:11:50.308Z,64.30
2017-11-27T11:16:56.165Z,64.30
2017-11-27T11:19:22.831Z,63.90
2017-11-27T11:21:49.523Z,64.10
2017-11-27T11:24:16.211Z,64.10
2017-11-27T11:26:44.013Z,64.40
2017-11-27T11:29:10.738Z,64.60
2017-11-27T11:31:37.406Z,64.60
2017-11-27T11:34:04.115Z,64.50
2017-11-27T11:36:30.773Z,64.80
2017-11-27T11:41:36.730Z,64.90
2017-11-27T11:44:03.401Z,64.80
2017-11-27T11:46:30.081Z,64.90
2017-11-27T11:48:56.786Z,65.40
2017-11-27T11:51:23.495Z,65.10
2017-11-27T11:56:29.401Z,65.30
2017-11-27T12:01:35.407Z,65.80
2017-11-27T12:04:02.090Z,65.80
2017-11-27T12:06:32.056Z,65.60
2017-11-27T12:08:59.153Z,65.70
2017-11-27T12:11:26.039Z,65.70
2017-11-27T12:13:52.734Z,65.70
2017-11-27T12:16:19.458Z,66.00
2017-11-27T12:18:46.119Z,66.00
2017-11-27T12:39:46.771Z,65.90
2017-11-27T13:00:46.399Z,66.70
2017-11-27T13:05:56.074Z,67.00
2017-11-27T13:08:22.759Z,66.80
2017-11-27T13:10:49.430Z,67.00
2017-11-27T13:13:16.132Z,67.00
2017-11-27T13:15:42.804Z,66.90
2017-11-27T13:18:09.487Z,67.00
2017-11-27T13:20:36.166Z,66.80
2017-11-27T13:23:02.867Z,66.90
2017-11-27T13:25:29.522Z,67.00
2017-11-27T13:27:56.216Z,67.30
2017-11-27T13:30:22.883Z,67.00
2017-11-27T13:32:49.572Z,67.20
2017-11-27T13:35:16.229Z,67.00
2017-11-27T13:53:38.006Z,67.60
2017-11-27T13:56:04.685Z,67.30
2017-11-27T13:58:31.356Z,67.10
2017-11-27T14:00:58.038Z,67.60
2017-11-27T14:03:24.740Z,67.70
2017-11-27T14:05:51.451Z,67.70
2017-11-27T14:24:12.433Z,67.90
2017-11-27T14:26:44.278Z,68.00
2017-11-27T14:29:11.350Z,67.90
2017-11-27T14:31:39.903Z,67.90
2017-11-27T14:34:06.976Z,68.40
2017-11-27T14:39:19.676Z,68.50
2017-11-27T14:41:46.360Z,68.40
2017-11-27T14:44:13.055Z,68.20
2017-11-27T14:46:39.844Z,68.60
2017-11-27T14:49:06.522Z,68.20
2017-11-27T14:51:33.215Z,68.60
2017-11-27T14:53:59.860Z,68.40
2017-11-27T14:59:05.589Z,69.00
2017-11-27T15:01:32.251Z,68.90
2017-11-27T15:22:30.757Z,68.70
2017-11-27T15:24:57.458Z,68.50
2017-11-27T15:27:24.141Z,68.50
2017-11-27T15:29:50.809Z,68.60
2017-11-27T15:32:17.502Z,68.30
2017-11-27T15:34:44.148Z,68.50
2017-11-27T15:37:10.820Z,68.80
2017-11-27T15:53:02.844Z,68.90
2017-11-27T15:55:29.534Z,69.10
2017-11-27T15:57:56.213Z,69.10
2017-11-27T16:00:22.877Z,69.10
2017-11-27T16:02:55.837Z,69.50
2017-11-27T16:05:22.530Z,69.30
2017-11-27T16:07:49.224Z,69.20
2017-11-27T16:12:55.022Z,69.30
2017-11-27T16:18:00.191Z,69.30
2017-11-27T16:20:26.866Z,69.40
2017-11-27T16:22:53.553Z,69.20
2017-11-27T16:43:52.486Z,69.40
2017-11-27T17:04:52.536Z,69.50
2017-11-27T17:36:23.852Z,70.10
2017-11-27T17:41:29.636Z,69.90
2017-11-27T17:46:35.483Z,70.10
2017-11-27T17:49:02.524Z,70.00
2017-11-27T17:51:29.221Z,70.00
2017-11-27T17:53:55.902Z,70.00
2017-11-27T18:09:37.180Z,70.20
2017-11-27T18:12:03.994Z,70.40
2017-11-27T18:14:30.687Z,70.30
2017-11-27T18:16:57.368Z,70.20
2017-11-27T18:19:24.061Z,70.50
2017-11-27T18:21:50.735Z,70.50
2017-11-27T18:42:51.314Z,70.40
2017-11-27T19:03:50.279Z,70.70
2017-11-27T19:11:35.211Z,70.60
2017-11-27T19:16:40.753Z,70.60
2017-11-27T19:19:07.406Z,70.70
2017-11-27T19:21:34.109Z,70.60
2017-11-27T19:24:00.783Z,70.50
2017-11-27T19:26:27.518Z,70.60
2017-11-27T19:28:54.180Z,70.40
2017-11-27T19:31:20.879Z,70.50
2017-11-27T19:33:47.542Z,70.50
2017-11-27T19:36:14.299Z,70.40
2017-11-27T19:38:40.973Z,70.60
2017-11-27T19:46:26.058Z,70.60
2017-11-27T19:48:56.215Z,70.60
2017-11-27T19:51:22.880Z,70.60
2017-11-27T19:53:57.308Z,70.70
2017-11-27T19:56:24.013Z,70.60
2017-11-27T19:58:50.675Z,70.60
2017-11-27T20:01:17.346Z,70.60
2017-11-27T20:03:44.046Z,70.60
2017-11-27T20:06:10.720Z,70.70
2017-11-27T20:08:37.821Z,70.70
2017-11-27T20:27:02.278Z,70.60
2017-11-27T20:29:28.987Z,70.50
2017-11-27T20:31:56.288Z,70.50
2017-11-27T20:34:26.346Z,70.50
2017-11-27T20:36:53.041Z,70.40
2017-11-27T20:39:19.709Z,70.50
2017-11-27T20:41:46.391Z,70.40
2017-11-27T20:44:13.090Z,70.40
2017-11-27T20:46:39.814Z,70.50
2017-11-27T20:51:45.278Z,70.50
2017-11-27T20:54:19.858Z,70.50
2017-11-27T21:12:41.559Z,70.60
2017-11-27T21:15:08.241Z,70.50
2017-11-27T21:17:34.889Z,70.50
2017-11-27T21:20:01.567Z,70.60
2017-11-27T21:22:28.236Z,70.50
2017-11-27T21:24:54.907Z,70.70
2017-11-27T21:27:21.566Z,70.60
2017-11-27T21:29:48.243Z,70.70
2017-11-27T21:32:14.904Z,70.70
2017-11-27T21:34:49.911Z,71.20
2017-11-27T21:37:16.614Z,71.10
2017-11-27T21:39:43.315Z,71.00
2017-11-27T21:42:09.979Z,71.10
2017-11-27T21:44:36.677Z,71.40
2017-11-27T21:47:03.366Z,71.30
2017-11-27T21:49:37.866Z,71.10
2017-11-27T21:52:04.536Z,71.00
2017-11-27T21:54:31.203Z,71.10
2017-11-27T21:56:57.921Z,70.90
2017-11-27T21:59:24.604Z,70.90
2017-11-27T22:01:51.293Z,70.90
2017-11-27T22:04:17.984Z,70.90
2017-11-27T22:06:44.711Z,70.80
2017-11-27T22:09:11.413Z,70.80
2017-11-27T22:11:38.133Z,70.70
2017-11-27T22:14:04.791Z,70.60
2017-11-27T22:16:31.465Z,70.60
2017-11-27T22:18:58.531Z,70.50
2017-11-27T22:21:25.177Z,70.50
2017-11-27T22:23:51.841Z,70.40
2017-11-27T22:26:18.510Z,70.50
2017-11-27T22:47:20.241Z,70.60
2017-11-27T22:49:46.919Z,70.60
2017-11-27T22:52:13.584Z,70.50
2017-11-27T22:54:40.277Z,70.50
2017-11-27T22:57:07.326Z,70.60
2017-11-27T23:12:50.356Z,70.40
2017-11-27T23:15:17.074Z,70.40
2017-11-27T23:17:44.343Z,70.40
2017-11-27T23:20:11.032Z,70.30
2017-11-27T23:25:16.342Z,70.10
2017-11-27T23:46:16.612Z,69.80
